createdAt,value
2023-03-29T00:01:35.983Z,5.50
2023-03-29T00:04:04.534Z,3.55
2023-03-29T00:06:33.612Z,3.72
2023-03-29T00:09:01.966Z,5.23
2023-03-29T00:11:29.779Z,4.32
2023-03-29T00:13:58.553Z,4.18
2023-03-29T00:16:26.280Z,5.10
2023-03-29T00:18:55.982Z,5.47
2023-03-29T00:21:24.156Z,5.15
2023-03-29T00:23:52.012Z,4.10
2023-03-29T00:26:20.256Z,4.60
2023-03-29T00:28:49.105Z,7.45
2023-03-29T00:31:17.880Z,3.47
2023-03-29T00:33:47.092Z,4.00
2023-03-29T00:36:17.282Z,3.97
2023-03-29T00:38:45.084Z,5.47
2023-03-29T00:41:13.283Z,6.03
2023-03-29T00:43:53.186Z,5.75
2023-03-29T00:46:21.241Z,6.85
2023-03-29T00:48:49.258Z,7.43
2023-03-29T00:51:20.761Z,6.57
2023-03-29T00:53:49.996Z,6.70
2023-03-29T00:56:20.893Z,6.50
2023-03-29T00:58:52.228Z,4.65
2023-03-29T01:01:22.823Z,4.75
2023-03-29T01:03:54.501Z,4.40
2023-03-29T01:06:26.297Z,5.38
2023-03-29T01:08:55.355Z,4.47
2023-03-29T01:11:26.948Z,7.43
2023-03-29T01:13:57.316Z,6.10
2023-03-29T01:16:25.930Z,5.90
2023-03-29T01:18:54.256Z,5.90
2023-03-29T01:21:23.578Z,6.65
2023-03-29T01:23:59.877Z,5.43
2023-03-29T01:26:30.955Z,5.35
2023-03-29T01:29:03.434Z,6.95
2023-03-29T01:31:32.529Z,7.32
2023-03-29T01:34:03.884Z,5.30
2023-03-29T01:36:35.440Z,5.85
2023-03-29T01:39:07.478Z,6.38
2023-03-29T01:41:39.718Z,4.53
2023-03-29T01:44:12.139Z,5.20
2023-03-29T01:46:45.111Z,5.57
2023-03-29T01:49:16.100Z,5.05
2023-03-29T01:51:47.117Z,5.50
2023-03-29T01:54:18.030Z,6.05
2023-03-29T01:56:46.848Z,4.85
2023-03-29T01:59:18.565Z,5.63
2023-03-29T02:01:49.906Z,4.90
2023-03-29T02:04:21.772Z,6.15
2023-03-29T02:06:51.269Z,8.73
2023-03-29T02:09:18.996Z,6.10
2023-03-29T02:11:47.958Z,5.63
2023-03-29T02:14:17.285Z,4.20
2023-03-29T02:16:46.308Z,8.40
2023-03-29T02:19:15.720Z,5.93
2023-03-29T02:21:48.317Z,5.68
2023-03-29T02:24:18.625Z,5.05
2023-03-29T02:26:46.370Z,5.07
2023-03-29T02:29:36.319Z,5.50
2023-03-29T02:34:38.181Z,5.65
2023-03-29T02:37:10.332Z,5.32
2023-03-29T02:39:39.867Z,4.55
2023-03-29T02:42:08.357Z,5.70
2023-03-29T02:44:39.845Z,4.43
2023-03-29T02:47:15.122Z,3.70
2023-03-29T02:49:42.946Z,4.10
2023-03-29T02:52:13.501Z,6.95
2023-03-29T02:54:43.240Z,3.92
2023-03-29T02:57:12.928Z,5.20
2023-03-29T02:59:44.145Z,5.57
2023-03-29T03:02:14.188Z,5.97
2023-03-29T03:04:43.441Z,3.75
2023-03-29T03:07:11.976Z,3.55
2023-03-29T03:09:41.612Z,3.63
2023-03-29T03:12:10.172Z,5.55
2023-03-29T03:14:40.459Z,3.60
2023-03-29T03:17:09.931Z,3.88
2023-03-29T03:19:38.232Z,5.43
2023-03-29T03:22:08.317Z,4.18
2023-03-29T03:24:36.036Z,4.53
2023-03-29T03:27:04.871Z,5.55
2023-03-29T03:29:33.715Z,5.32
2023-03-29T03:32:20.778Z,3.75
2023-03-29T03:35:21.484Z,6.13
2023-03-29T03:37:50.009Z,3.92
2023-03-29T03:40:18.848Z,6.25
2023-03-29T03:42:48.392Z,4.18
2023-03-29T03:45:16.586Z,5.38
2023-03-29T03:48:05.015Z,4.28
2023-03-29T03:50:58.218Z,5.70
2023-03-29T03:53:32.736Z,5.93
2023-03-29T03:56:20.779Z,4.05
2023-03-29T03:59:08.586Z,6.50
2023-03-29T04:01:50.216Z,4.70
2023-03-29T04:04:23.780Z,3.47
2023-03-29T04:07:04.236Z,5.78
2023-03-29T04:09:50.739Z,3.60
2023-03-29T04:12:33.092Z,5.57
2023-03-29T04:15:01.427Z,4.03
2023-03-29T04:17:30.467Z,3.70
2023-03-29T04:20:07.737Z,5.53
2023-03-29T04:22:36.506Z,5.95
2023-03-29T04:25:04.390Z,3.70
2023-03-29T04:27:48.216Z,4.82
2023-03-29T04:30:28.216Z,5.10
2023-03-29T04:33:13.718Z,4.22
2023-03-29T04:35:46.383Z,4.00
2023-03-29T04:38:17.991Z,4.68
2023-03-29T04:40:48.491Z,4.40
2023-03-29T04:43:26.707Z,5.10
2023-03-29T04:46:01.299Z,6.03
2023-03-29T04:48:49.942Z,3.83
2023-03-29T04:51:22.085Z,4.97
2023-03-29T04:53:53.184Z,4.20
2023-03-29T04:56:23.277Z,3.60
2023-03-29T04:59:15.107Z,3.92
2023-03-29T05:01:43.569Z,7.28
2023-03-29T05:04:14.026Z,5.03
2023-03-29T05:06:55.160Z,4.95
2023-03-29T05:09:23.916Z,5.30
2023-03-29T05:11:53.035Z,4.25
2023-03-29T05:14:23.894Z,5.57
2023-03-29T05:16:53.847Z,3.85
2023-03-29T05:19:22.510Z,6.63
2023-03-29T05:21:51.698Z,5.43
2023-03-29T05:24:24.272Z,5.30
2023-03-29T05:27:00.510Z,5.75
2023-03-29T05:29:32.798Z,11.32
2023-03-29T05:32:20.613Z,27.75
2023-03-29T05:34:48.366Z,5.97
2023-03-29T05:37:17.164Z,7.13
2023-03-29T05:40:05.600Z,5.43
2023-03-29T05:42:42.404Z,6.22
2023-03-29T05:45:13.096Z,5.75
2023-03-29T05:47:41.668Z,6.97
2023-03-29T05:50:10.324Z,5.95
2023-03-29T05:52:40.209Z,7.07
2023-03-29T05:55:10.393Z,8.38
2023-03-29T05:57:38.965Z,5.68
2023-03-29T06:00:15.451Z,5.03
2023-03-29T06:02:43.908Z,5.32
2023-03-29T06:05:11.844Z,7.20
2023-03-29T06:07:52.866Z,4.30
2023-03-29T06:10:39.795Z,5.43
2023-03-29T06:13:25.348Z,3.95
2023-03-29T06:15:53.340Z,6.05
2023-03-29T06:18:21.535Z,3.95
2023-03-29T06:20:50.916Z,6.53
2023-03-29T06:23:20.538Z,6.03
2023-03-29T06:25:51.432Z,3.90
2023-03-29T06:28:20.642Z,6.18
2023-03-29T06:30:49.368Z,5.70
2023-03-29T06:33:20.911Z,7.45
2023-03-29T06:36:02.209Z,5.50
2023-03-29T06:38:32.168Z,7.32
2023-03-29T06:41:21.534Z,4.85
2023-03-29T06:44:15.760Z,4.40
2023-03-29T06:46:55.019Z,4.90
2023-03-29T06:49:22.984Z,4.88
2023-03-29T06:52:12.249Z,5.15
2023-03-29T06:54:40.733Z,4.47
2023-03-29T06:57:10.604Z,7.07
2023-03-29T06:59:39.722Z,7.07
2023-03-29T07:02:17.697Z,5.75
2023-03-29T07:04:49.894Z,6.13
2023-03-29T07:07:22.651Z,5.55
2023-03-29T07:10:05.645Z,5.20
2023-03-29T07:12:54.375Z,7.88
2023-03-29T07:15:23.304Z,8.00
2023-03-29T07:18:26.757Z,5.22
2023-03-29T07:20:55.108Z,6.85
2023-03-29T07:23:24.187Z,7.13
2023-03-29T07:25:52.584Z,5.88
2023-03-29T07:28:22.321Z,7.70
2023-03-29T07:30:51.498Z,6.55
2023-03-29T07:33:22.514Z,7.78
2023-03-29T07:36:00.397Z,6.57
2023-03-29T07:38:48.186Z,8.20
2023-03-29T07:41:20.304Z,5.47
2023-03-29T07:43:54.276Z,5.50
2023-03-29T07:46:26.353Z,4.55
2023-03-29T07:48:57.089Z,8.07
2023-03-29T07:51:25.404Z,5.00
2023-03-29T07:54:01.763Z,8.25
2023-03-29T07:56:49.592Z,5.07
2023-03-29T07:59:39.289Z,6.10
2023-03-29T08:02:16.566Z,4.47
2023-03-29T08:04:47.368Z,5.32
2023-03-29T08:07:19.933Z,6.68
2023-03-29T08:10:18.657Z,4.55
2023-03-29T08:12:55.491Z,5.75
2023-03-29T08:15:46.621Z,5.53
2023-03-29T08:18:25.138Z,6.03
2023-03-29T08:20:54.129Z,5.38
2023-03-29T08:23:22.728Z,5.85
2023-03-29T08:26:11.692Z,7.95
2023-03-29T08:28:40.422Z,6.13
2023-03-29T08:31:11.657Z,8.80
2023-03-29T08:33:44.662Z,6.07
2023-03-29T08:36:44.786Z,5.28
2023-03-29T08:39:25.281Z,7.97
2023-03-29T08:42:20.719Z,5.45
2023-03-29T08:44:57.356Z,5.10
2023-03-29T08:47:31.125Z,8.00
2023-03-29T08:50:00.488Z,6.30
2023-03-29T08:52:39.220Z,4.82
2023-03-29T08:55:24.616Z,6.88
2023-03-29T08:58:14.626Z,7.22
2023-03-29T09:00:44.913Z,7.57
2023-03-29T09:03:20.627Z,5.97
2023-03-29T09:05:51.216Z,7.32
2023-03-29T09:08:26.684Z,6.03
2023-03-29T09:11:03.712Z,5.63
2023-03-29T09:13:39.751Z,7.25
2023-03-29T09:16:14.022Z,6.53
2023-03-29T09:18:51.037Z,5.72
2023-03-29T09:21:23.374Z,5.43
2023-03-29T09:24:04.323Z,5.95
2023-03-29T09:26:49.415Z,5.22
2023-03-29T09:29:49.275Z,8.07
2023-03-29T09:32:22.371Z,6.75
2023-03-29T09:35:08.955Z,4.15
2023-03-29T09:37:38.061Z,7.70
2023-03-29T09:40:12.638Z,7.38
2023-03-29T09:42:52.651Z,8.50
2023-03-29T09:45:21.244Z,6.75
2023-03-29T09:47:54.652Z,5.95
2023-03-29T09:50:31.476Z,5.88
2023-03-29T09:53:02.601Z,6.55
2023-03-29T09:55:34.525Z,7.03
2023-03-29T09:58:36.122Z,6.97
2023-03-29T10:01:09.221Z,8.00
2023-03-29T10:03:38.242Z,8.05
2023-03-29T10:06:15.157Z,6.07
2023-03-29T10:08:48.864Z,5.93
2023-03-29T10:11:22.466Z,6.10
2023-03-29T10:13:54.821Z,6.18
2023-03-29T10:16:24.225Z,5.93
2023-03-29T10:18:52.009Z,7.00
2023-03-29T10:21:22.143Z,5.68
2023-03-29T10:23:51.611Z,8.70
2023-03-29T10:26:24.944Z,6.60
2023-03-29T10:28:55.431Z,6.78
2023-03-29T10:31:23.562Z,13.38
2023-03-29T10:33:53.342Z,9.40
2023-03-29T10:36:23.903Z,6.65
2023-03-29T10:38:52.892Z,10.30
2023-03-29T10:41:21.748Z,9.90
2023-03-29T10:43:51.183Z,5.90
2023-03-29T10:46:22.437Z,4.85
2023-03-29T10:48:51.917Z,11.63
2023-03-29T10:51:20.163Z,6.80
2023-03-29T10:53:49.812Z,7.72
2023-03-29T10:56:28.356Z,5.55
2023-03-29T10:59:16.193Z,6.88
2023-03-29T11:01:51.254Z,6.90
2023-03-29T11:04:23.093Z,8.07
2023-03-29T11:06:56.559Z,7.63
2023-03-29T11:09:27.737Z,8.07
2023-03-29T11:12:15.016Z,9.52
2023-03-29T11:14:50.948Z,7.45
2023-03-29T11:17:27.095Z,6.88
2023-03-29T11:19:58.696Z,9.50
2023-03-29T11:22:32.664Z,10.88
2023-03-29T11:25:13.912Z,7.82
2023-03-29T11:27:47.441Z,7.53
2023-03-29T11:30:20.126Z,9.48
2023-03-29T11:32:53.748Z,7.40
2023-03-29T11:35:33.389Z,10.60
2023-03-29T11:38:07.411Z,9.93
2023-03-29T11:40:47.906Z,11.35
2023-03-29T11:43:19.472Z,12.27
2023-03-29T11:45:50.255Z,11.32
2023-03-29T11:48:22.935Z,9.68
2023-03-29T11:50:53.093Z,9.75
2023-03-29T11:53:24.439Z,12.88
2023-03-29T11:55:53.764Z,8.15
2023-03-29T11:58:23.451Z,12.55
2023-03-29T12:00:55.314Z,10.55
2023-03-29T12:03:32.328Z,13.18
2023-03-29T12:06:05.385Z,10.45
2023-03-29T12:08:36.225Z,7.85
2023-03-29T12:11:09.466Z,9.88
2023-03-29T12:13:39.022Z,10.95
2023-03-29T12:18:38.697Z,10.07
2023-03-29T12:21:10.952Z,9.98
2023-03-29T12:23:39.961Z,10.48
2023-03-29T12:26:13.960Z,12.43
2023-03-29T12:28:55.448Z,13.30
2023-03-29T12:31:26.105Z,12.85
2023-03-29T12:34:02.570Z,12.05
2023-03-29T12:37:02.080Z,11.43
2023-03-29T12:39:46.722Z,12.73
2023-03-29T12:42:55.528Z,16.40
2023-03-29T12:45:48.513Z,13.65
2023-03-29T12:48:18.007Z,12.15
2023-03-29T12:53:19.175Z,11.63
2023-03-29T12:55:52.625Z,12.10
2023-03-29T12:58:38.399Z,16.60
2023-03-29T13:01:08.914Z,13.48
2023-03-29T13:03:42.950Z,15.20
2023-03-29T13:06:13.533Z,16.35
2023-03-29T13:08:43.468Z,14.13
2023-03-29T13:13:40.945Z,10.88
2023-03-29T13:16:11.154Z,9.80
2023-03-29T13:18:50.023Z,10.77
2023-03-29T13:21:22.884Z,11.68
2023-03-29T13:23:58.672Z,10.50
2023-03-29T13:26:41.283Z,12.75
2023-03-29T13:29:28.322Z,11.77
2023-03-29T13:32:01.824Z,10.15
2023-03-29T13:34:36.113Z,12.63
2023-03-29T13:37:07.882Z,12.13
2023-03-29T13:39:37.707Z,9.52
2023-03-29T13:42:19.046Z,10.80
2023-03-29T13:44:49.555Z,8.80
2023-03-29T13:47:37.971Z,8.20
2023-03-29T13:50:08.174Z,11.50
2023-03-29T13:52:39.267Z,10.02
2023-03-29T13:55:10.901Z,9.95
2023-03-29T13:57:39.997Z,11.70
2023-03-29T14:00:16.033Z,9.32
2023-03-29T14:02:49.408Z,10.68
2023-03-29T14:05:19.561Z,13.27
2023-03-29T14:07:51.187Z,12.68
2023-03-29T14:10:21.317Z,9.38
2023-03-29T14:12:49.577Z,13.15
2023-03-29T14:15:23.286Z,11.75
2023-03-29T14:17:57.689Z,9.73
2023-03-29T14:20:28.357Z,12.20
2023-03-29T14:22:56.248Z,10.65
2023-03-29T14:25:24.535Z,11.02
2023-03-29T14:27:52.733Z,11.20
2023-03-29T14:30:22.779Z,11.07
2023-03-29T14:32:52.810Z,12.60
2023-03-29T14:35:28.959Z,9.95
2023-03-29T14:37:57.183Z,9.32
2023-03-29T14:40:25.011Z,9.85
2023-03-29T14:42:53.407Z,9.20
2023-03-29T14:45:23.820Z,8.32
2023-03-29T14:47:53.219Z,9.48
2023-03-29T14:50:25.549Z,10.03
2023-03-29T14:52:54.070Z,8.63
2023-03-29T14:55:23.907Z,10.57
2023-03-29T14:57:53.223Z,8.10
2023-03-29T15:00:27.932Z,9.30
2023-03-29T15:02:58.143Z,8.80
2023-03-29T15:05:32.099Z,8.50
2023-03-29T15:08:01.730Z,8.75
2023-03-29T15:10:32.730Z,9.27
2023-03-29T15:13:04.686Z,10.70
2023-03-29T15:15:34.640Z,8.32
2023-03-29T15:18:03.619Z,11.73
2023-03-29T15:20:34.485Z,9.93
2023-03-29T15:23:04.110Z,10.35
2023-03-29T15:25:36.806Z,8.48
2023-03-29T15:28:04.773Z,8.32
2023-03-29T15:30:34.784Z,6.32
2023-03-29T15:33:10.677Z,8.07
2023-03-29T15:35:40.599Z,7.80
2023-03-29T15:38:08.533Z,8.25
2023-03-29T15:40:37.237Z,6.88
2023-03-29T15:43:05.007Z,8.50
2023-03-29T15:45:33.417Z,9.32
2023-03-29T15:48:04.790Z,11.10
2023-03-29T15:50:34.080Z,9.82
2023-03-29T15:53:12.630Z,9.63
2023-03-29T15:55:45.192Z,6.85
2023-03-29T15:58:14.775Z,9.50
2023-03-29T16:00:44.930Z,9.35
2023-03-29T16:03:16.304Z,7.72
2023-03-29T16:05:44.425Z,9.35
2023-03-29T16:08:14.270Z,7.40
2023-03-29T16:10:43.841Z,8.48
2023-03-29T16:13:13.253Z,9.10
2023-03-29T16:18:09.088Z,7.18
2023-03-29T16:20:38.262Z,8.05
2023-03-29T16:23:09.868Z,7.47
2023-03-29T16:25:39.961Z,9.05
2023-03-29T16:28:09.672Z,7.82
2023-03-29T16:30:38.356Z,8.02
2023-03-29T16:33:08.601Z,6.82
2023-03-29T16:35:38.196Z,11.77
2023-03-29T16:38:06.406Z,10.00
2023-03-29T16:40:34.849Z,9.95
2023-03-29T16:43:04.644Z,10.93
2023-03-29T16:45:32.841Z,8.98
2023-03-29T16:48:01.735Z,8.18
2023-03-29T16:50:29.539Z,8.75
2023-03-29T16:52:57.279Z,8.68
2023-03-29T16:55:25.512Z,9.85
2023-03-29T16:57:53.592Z,11.93
2023-03-29T17:00:23.095Z,8.63
2023-03-29T17:02:51.410Z,12.23
2023-03-29T17:05:19.533Z,9.20
2023-03-29T17:07:47.948Z,9.85
2023-03-29T17:10:16.194Z,8.13
2023-03-29T17:12:43.958Z,8.82
2023-03-29T17:15:12.300Z,10.80
2023-03-29T17:17:42.751Z,9.30
2023-03-29T17:20:12.931Z,9.18
2023-03-29T17:22:40.802Z,9.30
2023-03-29T17:25:09.723Z,7.00
2023-03-29T17:27:37.964Z,8.63
2023-03-29T17:30:06.566Z,7.57
2023-03-29T17:32:36.521Z,8.23
2023-03-29T17:35:06.018Z,6.65
2023-03-29T17:37:34.280Z,7.43
2023-03-29T17:40:07.589Z,7.70
2023-03-29T17:42:35.339Z,9.30
2023-03-29T17:45:03.910Z,8.10
2023-03-29T17:47:31.686Z,8.75
2023-03-29T17:49:59.516Z,5.18
2023-03-29T17:52:28.591Z,8.05
2023-03-29T17:54:57.303Z,5.63
2023-03-29T17:57:25.184Z,7.40
2023-03-29T17:59:52.946Z,6.53
2023-03-29T18:02:22.955Z,7.45
2023-03-29T18:04:52.798Z,7.13
2023-03-29T18:07:20.671Z,11.75
2023-03-29T18:12:37.806Z,9.05
2023-03-29T18:15:06.756Z,6.97
2023-03-29T18:17:35.656Z,7.80
2023-03-29T18:20:08.288Z,6.63
2023-03-29T18:22:36.304Z,7.43
2023-03-29T18:25:07.346Z,5.43
2023-03-29T18:27:35.136Z,8.25
2023-03-29T18:30:02.872Z,7.35
2023-03-29T18:32:31.199Z,10.40
2023-03-29T18:34:59.711Z,6.00
2023-03-29T18:37:27.491Z,7.38
2023-03-29T18:39:55.731Z,5.63
2023-03-29T18:42:25.256Z,5.88
2023-03-29T18:44:53.244Z,8.80
2023-03-29T18:47:20.968Z,7.03
2023-03-29T18:49:50.239Z,6.72
2023-03-29T18:52:17.984Z,6.82
2023-03-29T18:54:45.819Z,5.05
2023-03-29T18:57:14.185Z,6.03
2023-03-29T18:59:43.336Z,5.95
2023-03-29T19:02:11.153Z,8.57
2023-03-29T19:04:39.404Z,4.93
2023-03-29T19:07:08.847Z,5.65
2023-03-29T19:12:05.961Z,6.00
2023-03-29T19:14:33.690Z,4.95
2023-03-29T19:17:02.827Z,6.25
2023-03-29T19:19:31.163Z,4.63
2023-03-29T19:22:01.214Z,5.90
2023-03-29T19:24:29.427Z,7.72
2023-03-29T19:26:58.322Z,8.20
2023-03-29T19:29:27.208Z,5.63
2023-03-29T19:31:57.004Z,5.93
2023-03-29T19:34:27.103Z,3.58
2023-03-29T19:36:55.405Z,7.13
2023-03-29T19:39:25.417Z,5.68
2023-03-29T19:41:53.335Z,4.85
2023-03-29T19:44:21.097Z,8.57
2023-03-29T19:46:49.735Z,6.30
2023-03-29T19:49:17.471Z,4.93
2023-03-29T19:51:47.925Z,4.63
2023-03-29T19:54:17.331Z,4.13
2023-03-29T19:56:46.751Z,5.32
2023-03-29T19:59:15.139Z,7.80
2023-03-29T20:01:51.169Z,6.20
2023-03-29T20:04:19.471Z,3.95
2023-03-29T20:06:49.095Z,7.80
2023-03-29T20:09:16.906Z,5.00
2023-03-29T20:11:46.686Z,8.48
2023-03-29T20:14:15.124Z,6.55
2023-03-29T20:16:44.158Z,5.70
2023-03-29T20:19:14.210Z,5.88
2023-03-29T20:21:42.896Z,5.30
2023-03-29T20:24:12.005Z,6.55
2023-03-29T20:26:40.382Z,5.50
2023-03-29T20:29:08.651Z,8.52
2023-03-29T20:31:36.448Z,6.82
2023-03-29T20:34:04.880Z,4.65
2023-03-29T20:36:32.771Z,5.53
2023-03-29T20:39:01.317Z,4.60
2023-03-29T20:41:31.521Z,7.55
2023-03-29T20:43:59.952Z,5.00
2023-03-29T20:46:35.346Z,3.92
2023-03-29T20:49:04.582Z,4.30
2023-03-29T20:51:33.588Z,4.78
2023-03-29T20:54:05.063Z,5.30
2023-03-29T20:56:35.244Z,5.00
2023-03-29T20:59:04.055Z,6.32
2023-03-29T21:01:32.432Z,4.40
2023-03-29T21:04:00.329Z,7.53
2023-03-29T21:06:28.473Z,4.53
2023-03-29T21:08:57.838Z,5.85
2023-03-29T21:11:25.673Z,6.35
2023-03-29T21:13:55.847Z,6.80
2023-03-29T21:16:25.631Z,5.80
2023-03-29T21:18:54.345Z,5.78
2023-03-29T21:21:23.438Z,6.82
2023-03-29T21:23:51.366Z,6.28
2023-03-29T21:26:19.669Z,5.95
2023-03-29T21:28:48.678Z,5.38
2023-03-29T21:31:18.306Z,5.05
2023-03-29T21:36:14.881Z,5.22
2023-03-29T21:38:42.621Z,6.72
2023-03-29T21:41:12.531Z,5.20
2023-03-29T21:43:40.414Z,5.28
2023-03-29T21:46:08.897Z,6.15
2023-03-29T21:48:38.297Z,6.25
2023-03-29T21:51:07.172Z,7.25
2023-03-29T21:53:35.136Z,4.20
2023-03-29T21:56:02.854Z,6.43
2023-03-29T21:58:31.189Z,5.10
2023-03-29T22:00:59.504Z,4.68
2023-03-29T22:03:27.519Z,5.53
2023-03-29T22:06:01.203Z,7.38
2023-03-29T22:08:29.003Z,5.55
2023-03-29T22:10:57.397Z,5.25
2023-03-29T22:13:26.591Z,7.25
2023-03-29T22:15:59.841Z,7.38
2023-03-29T22:18:28.425Z,6.13
2023-03-29T22:20:56.148Z,4.85
2023-03-29T22:23:25.843Z,4.63
2023-03-29T22:25:54.008Z,4.03
2023-03-29T22:28:22.230Z,3.83
2023-03-29T22:30:49.934Z,7.03
2023-03-29T22:33:19.683Z,4.75
2023-03-29T22:35:47.430Z,7.55
2023-03-29T22:38:15.193Z,4.30
2023-03-29T22:40:44.719Z,6.13
2023-03-29T22:43:13.110Z,6.15
2023-03-29T22:45:41.267Z,5.82
2023-03-29T22:48:09.926Z,4.47
2023-03-29T22:50:37.840Z,6.68
2023-03-29T22:53:06.025Z,5.50
2023-03-29T22:55:34.796Z,4.45
2023-03-29T22:58:03.877Z,6.03
2023-03-29T23:00:32.341Z,5.93
2023-03-29T23:03:00.584Z,6.32
2023-03-29T23:05:28.380Z,5.90
2023-03-29T23:07:56.825Z,5.20
2023-03-29T23:10:29.788Z,3.30
2023-03-29T23:13:08.852Z,5.40
2023-03-29T23:15:39.491Z,5.30
2023-03-29T23:18:07.269Z,7.03
2023-03-29T23:20:35.069Z,4.97
2023-03-29T23:23:04.505Z,6.00
2023-03-29T23:25:32.494Z,4.63
2023-03-29T23:28:00.759Z,5.85
2023-03-29T23:30:30.099Z,4.78
2023-03-29T23:33:00.213Z,5.28
2023-03-29T23:35:28.964Z,5.72
2023-03-29T23:37:56.779Z,5.90
2023-03-29T23:40:24.500Z,5.18
2023-03-29T23:42:53.054Z,6.07
2023-03-29T23:45:20.747Z,6.95
2023-03-29T23:47:48.975Z,3.97
2023-03-29T23:50:18.903Z,7.10
2023-03-29T23:55:15.646Z,4.47
2023-03-29T23:57:44.073Z,4.00
